sensor_id;sensor_type;location;lat;lon;timestamp;P1;durP1;ratioP1;P2;durP2;ratioP2
74369;SDS011;62805;44.644;10.942;2023-03-03T00:01:35;44.05;;;18.70;;
74369;SDS011;62805;44.644;10.942;2023-03-03T00:04:01;50.00;;;22.83;;
74369;SDS011;62805;44.644;10.942;2023-03-03T00:06:26;46.35;;;19.48;;
74369;SDS011;62805;44.644;10.942;2023-03-03T00:08:53;49.63;;;20.48;;
74369;SDS011;62805;44.644;10.942;2023-03-03T00:11:19;48.63;;;20.37;;
74369;SDS011;62805;44.644;10.942;2023-03-03T00:13:45;50.93;;;21.97;;
74369;SDS011;62805;44.644;10.942;2023-03-03T00:16:34;52.17;;;21.48;;
74369;SDS011;62805;44.644;10.942;2023-03-03T00:19:01;52.15;;;22.40;;
74369;SDS011;62805;44.644;10.942;2023-03-03T00:23:58;48.42;;;18.75;;
74369;SDS011;62805;44.644;10.942;2023-03-03T00:29:02;47.33;;;20.20;;
74369;SDS011;62805;44.644;10.942;2023-03-03T00:31:47;49.92;;;22.25;;
74369;SDS011;62805;44.644;10.942;2023-03-03T00:36:41;46.83;;;19.15;;
74369;SDS011;62805;44.644;10.942;2023-03-03T00:39:22;52.92;;;21.50;;
74369;SDS011;62805;44.644;10.942;2023-03-03T00:41:49;55.70;;;22.77;;
74369;SDS011;62805;44.644;10.942;2023-03-03T00:44:30;54.25;;;23.23;;
74369;SDS011;62805;44.644;10.942;2023-03-03T00:47:26;58.53;;;23.98;;
74369;SDS011;62805;44.644;10.942;2023-03-03T00:52:35;59.95;;;24.35;;
74369;SDS011;62805;44.644;10.942;2023-03-03T00:55:01;64.85;;;24.73;;
74369;SDS011;62805;44.644;10.942;2023-03-03T00:57:28;64.45;;;24.92;;
74369;SDS011;62805;44.644;10.942;2023-03-03T00:59:53;69.45;;;25.60;;
74369;SDS011;62805;44.644;10.942;2023-03-03T01:02:19;62.13;;;24.93;;
74369;SDS011;62805;44.644;10.942;2023-03-03T01:04:46;60.67;;;24.98;;
74369;SDS011;62805;44.644;10.942;2023-03-03T01:07:14;58.55;;;23.92;;
74369;SDS011;62805;44.644;10.942;2023-03-03T01:09:39;58.38;;;23.35;;
74369;SDS011;62805;44.644;10.942;2023-03-03T01:12:05;54.57;;;20.87;;
74369;SDS011;62805;44.644;10.942;2023-03-03T01:14:30;53.00;;;21.33;;
74369;SDS011;62805;44.644;10.942;2023-03-03T01:16:56;54.92;;;21.85;;
74369;SDS011;62805;44.644;10.942;2023-03-03T01:19:21;53.53;;;22.65;;
74369;SDS011;62805;44.644;10.942;2023-03-03T01:21:46;53.20;;;22.02;;
74369;SDS011;62805;44.644;10.942;2023-03-03T01:24:12;52.50;;;20.60;;
74369;SDS011;62805;44.644;10.942;2023-03-03T01:26:37;46.47;;;19.77;;
74369;SDS011;62805;44.644;10.942;2023-03-03T01:29:03;51.60;;;21.00;;
74369;SDS011;62805;44.644;10.942;2023-03-03T01:31:28;51.87;;;21.43;;
74369;SDS011;62805;44.644;10.942;2023-03-03T01:33:53;48.60;;;19.60;;
74369;SDS011;62805;44.644;10.942;2023-03-03T01:36:23;51.40;;;21.17;;
74369;SDS011;62805;44.644;10.942;2023-03-03T01:38:49;57.55;;;22.30;;
74369;SDS011;62805;44.644;10.942;2023-03-03T01:41:15;54.35;;;21.10;;
74369;SDS011;62805;44.644;10.942;2023-03-03T01:43:44;53.72;;;22.45;;
74369;SDS011;62805;44.644;10.942;2023-03-03T01:46:28;52.00;;;20.88;;
74369;SDS011;62805;44.644;10.942;2023-03-03T01:49:00;51.70;;;20.90;;
74369;SDS011;62805;44.644;10.942;2023-03-03T01:51:30;52.30;;;20.58;;
74369;SDS011;62805;44.644;10.942;2023-03-03T01:53:58;56.88;;;21.95;;
74369;SDS011;62805;44.644;10.942;2023-03-03T01:56:25;49.63;;;20.60;;
74369;SDS011;62805;44.644;10.942;2023-03-03T02:01:20;48.05;;;19.60;;
74369;SDS011;62805;44.644;10.942;2023-03-03T02:03:47;51.50;;;19.33;;
74369;SDS011;62805;44.644;10.942;2023-03-03T02:06:13;52.63;;;20.42;;
74369;SDS011;62805;44.644;10.942;2023-03-03T02:11:08;50.13;;;21.17;;
74369;SDS011;62805;44.644;10.942;2023-03-03T02:13:34;46.35;;;19.83;;
74369;SDS011;62805;44.644;10.942;2023-03-03T02:16:00;50.97;;;21.38;;
74369;SDS011;62805;44.644;10.942;2023-03-03T02:18:25;57.08;;;20.98;;
74369;SDS011;62805;44.644;10.942;2023-03-03T02:21:07;53.47;;;22.02;;
74369;SDS011;62805;44.644;10.942;2023-03-03T02:26:09;49.47;;;21.75;;
74369;SDS011;62805;44.644;10.942;2023-03-03T02:28:48;55.63;;;22.02;;
74369;SDS011;62805;44.644;10.942;2023-03-03T02:31:16;55.58;;;22.35;;
74369;SDS011;62805;44.644;10.942;2023-03-03T02:33:45;50.13;;;21.17;;
74369;SDS011;62805;44.644;10.942;2023-03-03T02:36:19;65.57;;;22.35;;
74369;SDS011;62805;44.644;10.942;2023-03-03T02:38:55;56.53;;;22.88;;
74369;SDS011;62805;44.644;10.942;2023-03-03T02:44:16;66.40;;;23.05;;
74369;SDS011;62805;44.644;10.942;2023-03-03T02:49:10;60.60;;;24.85;;
74369;SDS011;62805;44.644;10.942;2023-03-03T02:51:37;62.13;;;25.48;;
74369;SDS011;62805;44.644;10.942;2023-03-03T02:54:03;61.95;;;25.33;;
74369;SDS011;62805;44.644;10.942;2023-03-03T02:56:29;64.35;;;25.75;;
74369;SDS011;62805;44.644;10.942;2023-03-03T02:58:54;62.38;;;24.73;;
74369;SDS011;62805;44.644;10.942;2023-03-03T03:01:20;71.80;;;25.60;;
74369;SDS011;62805;44.644;10.942;2023-03-03T03:03:45;67.82;;;26.23;;
74369;SDS011;62805;44.644;10.942;2023-03-03T03:06:11;66.35;;;25.48;;
74369;SDS011;62805;44.644;10.942;2023-03-03T03:08:36;64.47;;;24.13;;
74369;SDS011;62805;44.644;10.942;2023-03-03T03:11:02;63.23;;;24.03;;
74369;SDS011;62805;44.644;10.942;2023-03-03T03:13:28;62.78;;;24.58;;
74369;SDS011;62805;44.644;10.942;2023-03-03T03:15:54;60.75;;;25.30;;
74369;SDS011;62805;44.644;10.942;2023-03-03T03:18:19;55.85;;;21.15;;
74369;SDS011;62805;44.644;10.942;2023-03-03T03:20:45;54.78;;;21.85;;
74369;SDS011;62805;44.644;10.942;2023-03-03T03:23:10;56.35;;;23.50;;
74369;SDS011;62805;44.644;10.942;2023-03-03T03:25:36;57.70;;;21.85;;
74369;SDS011;62805;44.644;10.942;2023-03-03T03:28:09;51.92;;;19.80;;
74369;SDS011;62805;44.644;10.942;2023-03-03T03:30:34;53.92;;;19.65;;
74369;SDS011;62805;44.644;10.942;2023-03-03T03:33:00;49.33;;;20.30;;
74369;SDS011;62805;44.644;10.942;2023-03-03T03:35:25;45.97;;;18.60;;
74369;SDS011;62805;44.644;10.942;2023-03-03T03:37:50;46.73;;;19.87;;
74369;SDS011;62805;44.644;10.942;2023-03-03T03:40:16;51.25;;;19.40;;
74369;SDS011;62805;44.644;10.942;2023-03-03T03:42:41;49.42;;;18.80;;
74369;SDS011;62805;44.644;10.942;2023-03-03T03:45:07;49.67;;;19.13;;
74369;SDS011;62805;44.644;10.942;2023-03-03T03:47:32;42.22;;;17.42;;
74369;SDS011;62805;44.644;10.942;2023-03-03T03:49:58;42.13;;;17.20;;
74369;SDS011;62805;44.644;10.942;2023-03-03T03:52:23;45.50;;;17.63;;
74369;SDS011;62805;44.644;10.942;2023-03-03T03:54:48;45.73;;;19.23;;
74369;SDS011;62805;44.644;10.942;2023-03-03T03:57:14;40.93;;;18.30;;
74369;SDS011;62805;44.644;10.942;2023-03-03T03:59:39;41.87;;;16.80;;
74369;SDS011;62805;44.644;10.942;2023-03-03T04:02:04;44.53;;;17.30;;
74369;SDS011;62805;44.644;10.942;2023-03-03T04:04:30;43.07;;;18.37;;
74369;SDS011;62805;44.644;10.942;2023-03-03T04:06:55;40.83;;;17.08;;
74369;SDS011;62805;44.644;10.942;2023-03-03T04:09:20;43.85;;;18.85;;
74369;SDS011;62805;44.644;10.942;2023-03-03T04:11:46;47.10;;;18.50;;
74369;SDS011;62805;44.644;10.942;2023-03-03T04:14:11;36.97;;;17.43;;
74369;SDS011;62805;44.644;10.942;2023-03-03T04:16:36;39.30;;;16.97;;
74369;SDS011;62805;44.644;10.942;2023-03-03T04:19:02;45.15;;;17.73;;
74369;SDS011;62805;44.644;10.942;2023-03-03T04:21:27;38.05;;;17.10;;
74369;SDS011;62805;44.644;10.942;2023-03-03T04:23:53;41.22;;;16.98;;
74369;SDS011;62805;44.644;10.942;2023-03-03T04:26:18;43.93;;;19.07;;
74369;SDS011;62805;44.644;10.942;2023-03-03T04:28:43;41.43;;;17.67;;
74369;SDS011;62805;44.644;10.942;2023-03-03T04:31:09;46.97;;;18.95;;
74369;SDS011;62805;44.644;10.942;2023-03-03T04:33:35;52.30;;;20.42;;
74369;SDS011;62805;44.644;10.942;2023-03-03T04:36:00;52.55;;;19.85;;
74369;SDS011;62805;44.644;10.942;2023-03-03T04:38:26;47.97;;;17.30;;
74369;SDS011;62805;44.644;10.942;2023-03-03T04:40:51;48.15;;;20.25;;
74369;SDS011;62805;44.644;10.942;2023-03-03T04:43:17;46.22;;;20.10;;
74369;SDS011;62805;44.644;10.942;2023-03-03T04:45:42;44.35;;;18.30;;
74369;SDS011;62805;44.644;10.942;2023-03-03T04:48:08;41.90;;;17.08;;
74369;SDS011;62805;44.644;10.942;2023-03-03T04:50:33;45.85;;;18.17;;
74369;SDS011;62805;44.644;10.942;2023-03-03T04:52:59;46.47;;;17.73;;
74369;SDS011;62805;44.644;10.942;2023-03-03T04:55:24;44.40;;;18.40;;
74369;SDS011;62805;44.644;10.942;2023-03-03T04:57:49;49.10;;;19.00;;
74369;SDS011;62805;44.644;10.942;2023-03-03T05:00:15;44.63;;;18.10;;
74369;SDS011;62805;44.644;10.942;2023-03-03T05:02:40;47.35;;;18.83;;
74369;SDS011;62805;44.644;10.942;2023-03-03T05:05:06;51.83;;;19.17;;
74369;SDS011;62805;44.644;10.942;2023-03-03T05:07:33;42.78;;;17.45;;
74369;SDS011;62805;44.644;10.942;2023-03-03T05:09:59;44.03;;;17.33;;
74369;SDS011;62805;44.644;10.942;2023-03-03T05:12:24;44.77;;;17.03;;
74369;SDS011;62805;44.644;10.942;2023-03-03T05:14:50;46.85;;;17.92;;
74369;SDS011;62805;44.644;10.942;2023-03-03T05:17:16;43.17;;;18.40;;
74369;SDS011;62805;44.644;10.942;2023-03-03T05:19:41;44.07;;;18.30;;
74369;SDS011;62805;44.644;10.942;2023-03-03T05:22:06;42.87;;;17.50;;
74369;SDS011;62805;44.644;10.942;2023-03-03T05:24:32;47.22;;;18.33;;
74369;SDS011;62805;44.644;10.942;2023-03-03T05:26:57;46.95;;;17.45;;
74369;SDS011;62805;44.644;10.942;2023-03-03T05:29:22;47.60;;;18.00;;
74369;SDS011;62805;44.644;10.942;2023-03-03T05:31:48;43.97;;;17.10;;
74369;SDS011;62805;44.644;10.942;2023-03-03T05:34:13;47.72;;;17.30;;
74369;SDS011;62805;44.644;10.942;2023-03-03T05:36:39;43.90;;;17.13;;
74369;SDS011;62805;44.644;10.942;2023-03-03T05:39:04;43.97;;;16.52;;
74369;SDS011;62805;44.644;10.942;2023-03-03T05:41:29;46.20;;;17.92;;
74369;SDS011;62805;44.644;10.942;2023-03-03T05:43:55;42.87;;;17.17;;
74369;SDS011;62805;44.644;10.942;2023-03-03T05:46:20;36.90;;;16.53;;
74369;SDS011;62805;44.644;10.942;2023-03-03T05:48:45;47.57;;;16.93;;
74369;SDS011;62805;44.644;10.942;2023-03-03T05:51:11;49.92;;;17.40;;
74369;SDS011;62805;44.644;10.942;2023-03-03T05:53:36;39.72;;;16.60;;
74369;SDS011;62805;44.644;10.942;2023-03-03T05:56:02;45.45;;;17.35;;
74369;SDS011;62805;44.644;10.942;2023-03-03T05:58:28;39.63;;;16.40;;
74369;SDS011;62805;44.644;10.942;2023-03-03T06:00:54;43.92;;;17.27;;
74369;SDS011;62805;44.644;10.942;2023-03-03T06:03:19;39.53;;;15.98;;
74369;SDS011;62805;44.644;10.942;2023-03-03T06:05:45;43.30;;;17.75;;
74369;SDS011;62805;44.644;10.942;2023-03-03T06:08:10;39.00;;;15.13;;
74369;SDS011;62805;44.644;10.942;2023-03-03T06:10:35;43.00;;;16.13;;
74369;SDS011;62805;44.644;10.942;2023-03-03T06:13:01;39.22;;;17.77;;
74369;SDS011;62805;44.644;10.942;2023-03-03T06:15:26;34.78;;;14.73;;
74369;SDS011;62805;44.644;10.942;2023-03-03T06:17:52;37.28;;;15.32;;
74369;SDS011;62805;44.644;10.942;2023-03-03T06:20:17;38.28;;;16.13;;
74369;SDS011;62805;44.644;10.942;2023-03-03T06:22:43;45.92;;;16.65;;
74369;SDS011;62805;44.644;10.942;2023-03-03T06:25:08;38.85;;;15.52;;
74369;SDS011;62805;44.644;10.942;2023-03-03T06:27:34;38.05;;;16.20;;
74369;SDS011;62805;44.644;10.942;2023-03-03T06:29:59;43.05;;;17.15;;
74369;SDS011;62805;44.644;10.942;2023-03-03T06:32:25;42.73;;;17.23;;
74369;SDS011;62805;44.644;10.942;2023-03-03T06:34:50;42.97;;;17.30;;
74369;SDS011;62805;44.644;10.942;2023-03-03T06:37:16;40.95;;;17.05;;
74369;SDS011;62805;44.644;10.942;2023-03-03T06:39:41;41.85;;;16.92;;
74369;SDS011;62805;44.644;10.942;2023-03-03T06:42:07;42.70;;;17.30;;
74369;SDS011;62805;44.644;10.942;2023-03-03T06:44:33;37.50;;;15.48;;
74369;SDS011;62805;44.644;10.942;2023-03-03T06:46:59;41.33;;;17.45;;
74369;SDS011;62805;44.644;10.942;2023-03-03T06:49:24;42.37;;;16.33;;
74369;SDS011;62805;44.644;10.942;2023-03-03T06:51:50;43.78;;;17.20;;
74369;SDS011;62805;44.644;10.942;2023-03-03T06:54:16;42.13;;;16.63;;
74369;SDS011;62805;44.644;10.942;2023-03-03T06:56:43;44.55;;;17.17;;
74369;SDS011;62805;44.644;10.942;2023-03-03T06:59:17;43.20;;;17.17;;
74369;SDS011;62805;44.644;10.942;2023-03-03T07:01:44;44.00;;;17.27;;
74369;SDS011;62805;44.644;10.942;2023-03-03T07:06:50;44.78;;;17.10;;
74369;SDS011;62805;44.644;10.942;2023-03-03T07:11:44;48.60;;;17.77;;
74369;SDS011;62805;44.644;10.942;2023-03-03T07:14:13;42.15;;;17.38;;
74369;SDS011;62805;44.644;10.942;2023-03-03T07:16:40;49.03;;;17.50;;
74369;SDS011;62805;44.644;10.942;2023-03-03T07:19:10;38.95;;;17.02;;
74369;SDS011;62805;44.644;10.942;2023-03-03T07:21:41;44.10;;;17.55;;
74369;SDS011;62805;44.644;10.942;2023-03-03T07:24:26;50.50;;;18.07;;
74369;SDS011;62805;44.644;10.942;2023-03-03T07:27:16;41.13;;;16.92;;
74369;SDS011;62805;44.644;10.942;2023-03-03T07:29:47;40.60;;;17.23;;
74369;SDS011;62805;44.644;10.942;2023-03-03T07:32:59;45.30;;;17.42;;
74369;SDS011;62805;44.644;10.942;2023-03-03T07:35:17;43.20;;;17.10;;
74369;SDS011;62805;44.644;10.942;2023-03-03T07:37:53;42.50;;;17.83;;
74369;SDS011;62805;44.644;10.942;2023-03-03T07:40:35;46.83;;;18.83;;
74369;SDS011;62805;44.644;10.942;2023-03-03T07:48:35;39.92;;;16.13;;
74369;SDS011;62805;44.644;10.942;2023-03-03T07:51:05;44.47;;;19.90;;
74369;SDS011;62805;44.644;10.942;2023-03-03T07:53:37;45.53;;;18.67;;
74369;SDS011;62805;44.644;10.942;2023-03-03T07:56:10;42.13;;;18.75;;
74369;SDS011;62805;44.644;10.942;2023-03-03T07:58:45;44.63;;;18.13;;
74369;SDS011;62805;44.644;10.942;2023-03-03T08:01:27;43.78;;;19.38;;
74369;SDS011;62805;44.644;10.942;2023-03-03T08:04:17;39.70;;;18.33;;
74369;SDS011;62805;44.644;10.942;2023-03-03T08:06:51;40.17;;;17.27;;
74369;SDS011;62805;44.644;10.942;2023-03-03T08:11:45;39.77;;;17.20;;
74369;SDS011;62805;44.644;10.942;2023-03-03T08:14:14;40.15;;;17.90;;
74369;SDS011;62805;44.644;10.942;2023-03-03T08:16:40;45.47;;;17.98;;
74369;SDS011;62805;44.644;10.942;2023-03-03T08:19:05;42.40;;;18.40;;
74369;SDS011;62805;44.644;10.942;2023-03-03T08:21:31;40.58;;;18.58;;
74369;SDS011;62805;44.644;10.942;2023-03-03T08:23:58;42.25;;;18.10;;
74369;SDS011;62805;44.644;10.942;2023-03-03T08:26:24;44.17;;;18.65;;
74369;SDS011;62805;44.644;10.942;2023-03-03T08:28:51;41.88;;;18.08;;
74369;SDS011;62805;44.644;10.942;2023-03-03T08:31:17;42.22;;;18.27;;
74369;SDS011;62805;44.644;10.942;2023-03-03T08:33:43;41.38;;;18.98;;
74369;SDS011;62805;44.644;10.942;2023-03-03T08:36:08;41.55;;;18.00;;
74369;SDS011;62805;44.644;10.942;2023-03-03T08:38:34;44.83;;;20.55;;
74369;SDS011;62805;44.644;10.942;2023-03-03T08:41:00;41.20;;;19.10;;
74369;SDS011;62805;44.644;10.942;2023-03-03T08:43:25;45.63;;;19.90;;
74369;SDS011;62805;44.644;10.942;2023-03-03T08:45:51;44.28;;;20.63;;
74369;SDS011;62805;44.644;10.942;2023-03-03T08:48:18;43.90;;;20.23;;
74369;SDS011;62805;44.644;10.942;2023-03-03T08:50:44;44.47;;;20.40;;
74369;SDS011;62805;44.644;10.942;2023-03-03T08:53:10;45.58;;;21.20;;
74369;SDS011;62805;44.644;10.942;2023-03-03T08:55:36;45.22;;;21.38;;
74369;SDS011;62805;44.644;10.942;2023-03-03T08:58:02;42.08;;;19.75;;
74369;SDS011;62805;44.644;10.942;2023-03-03T09:00:27;43.75;;;20.55;;
74369;SDS011;62805;44.644;10.942;2023-03-03T09:02:53;42.47;;;19.03;;
74369;SDS011;62805;44.644;10.942;2023-03-03T09:05:19;44.50;;;21.80;;
74369;SDS011;62805;44.644;10.942;2023-03-03T09:07:44;43.22;;;19.85;;
74369;SDS011;62805;44.644;10.942;2023-03-03T09:10:11;47.58;;;19.80;;
74369;SDS011;62805;44.644;10.942;2023-03-03T09:12:44;40.35;;;17.83;;
74369;SDS011;62805;44.644;10.942;2023-03-03T09:17:47;41.22;;;19.73;;
74369;SDS011;62805;44.644;10.942;2023-03-03T09:25:52;44.30;;;19.50;;
74369;SDS011;62805;44.644;10.942;2023-03-03T09:28:28;48.45;;;18.98;;
74369;SDS011;62805;44.644;10.942;2023-03-03T09:30:58;44.50;;;20.48;;
74369;SDS011;62805;44.644;10.942;2023-03-03T09:38:43;38.88;;;18.40;;
74369;SDS011;62805;44.644;10.942;2023-03-03T09:49:35;43.92;;;21.58;;
74369;SDS011;62805;44.644;10.942;2023-03-03T10:03:21;41.70;;;20.33;;
74369;SDS011;62805;44.644;10.942;2023-03-03T10:06:12;45.65;;;19.73;;
74369;SDS011;62805;44.644;10.942;2023-03-03T10:09:37;38.10;;;19.55;;
74369;SDS011;62805;44.644;10.942;2023-03-03T10:17:38;44.70;;;20.17;;
74369;SDS011;62805;44.644;10.942;2023-03-03T10:48:56;39.17;;;17.85;;
74369;SDS011;62805;44.644;10.942;2023-03-03T10:51:34;40.42;;;18.30;;
74369;SDS011;62805;44.644;10.942;2023-03-03T10:54:27;37.55;;;19.10;;
74369;SDS011;62805;44.644;10.942;2023-03-03T11:07:55;32.72;;;16.02;;
74369;SDS011;62805;44.644;10.942;2023-03-03T11:21:31;27.70;;;12.45;;
74369;SDS011;62805;44.644;10.942;2023-03-03T11:38:14;22.05;;;10.48;;
74369;SDS011;62805;44.644;10.942;2023-03-03T11:40:54;24.95;;;11.85;;
74369;SDS011;62805;44.644;10.942;2023-03-03T11:43:30;25.30;;;12.18;;
74369;SDS011;62805;44.644;10.942;2023-03-03T11:46:08;25.17;;;11.93;;
74369;SDS011;62805;44.644;10.942;2023-03-03T11:54:23;24.27;;;12.25;;
74369;SDS011;62805;44.644;10.942;2023-03-03T11:57:44;31.20;;;11.63;;
74369;SDS011;62805;44.644;10.942;2023-03-03T12:05:40;18.55;;;10.05;;
74369;SDS011;62805;44.644;10.942;2023-03-03T12:08:13;22.15;;;10.82;;
74369;SDS011;62805;44.644;10.942;2023-03-03T12:10:56;21.65;;;9.88;;
74369;SDS011;62805;44.644;10.942;2023-03-03T12:34:52;20.55;;;10.30;;
74369;SDS011;62805;44.644;10.942;2023-03-03T12:40:33;14.85;;;7.13;;
74369;SDS011;62805;44.644;10.942;2023-03-03T12:43:07;16.05;;;8.07;;
74369;SDS011;62805;44.644;10.942;2023-03-03T12:48:42;17.25;;;8.60;;
74369;SDS011;62805;44.644;10.942;2023-03-03T12:53:46;18.45;;;8.77;;
74369;SDS011;62805;44.644;10.942;2023-03-03T12:56:59;16.60;;;8.80;;
74369;SDS011;62805;44.644;10.942;2023-03-03T13:07:40;18.17;;;9.77;;
74369;SDS011;62805;44.644;10.942;2023-03-03T13:12:45;19.25;;;10.70;;
74369;SDS011;62805;44.644;10.942;2023-03-03T13:15:29;19.83;;;9.98;;
74369;SDS011;62805;44.644;10.942;2023-03-03T13:20:52;22.23;;;11.82;;
74369;SDS011;62805;44.644;10.942;2023-03-03T13:26:21;20.15;;;11.45;;
74369;SDS011;62805;44.644;10.942;2023-03-03T13:31:49;23.30;;;12.52;;
74369;SDS011;62805;44.644;10.942;2023-03-03T13:42:22;19.92;;;11.32;;
74369;SDS011;62805;44.644;10.942;2023-03-03T13:44:49;20.20;;;11.02;;
74369;SDS011;62805;44.644;10.942;2023-03-03T13:47:17;20.08;;;10.75;;
74369;SDS011;62805;44.644;10.942;2023-03-03T13:52:44;21.30;;;11.20;;
74369;SDS011;62805;44.644;10.942;2023-03-03T13:56:16;21.38;;;10.27;;
74369;SDS011;62805;44.644;10.942;2023-03-03T14:03:55;17.05;;;9.55;;
74369;SDS011;62805;44.644;10.942;2023-03-03T14:06:28;17.77;;;9.82;;
74369;SDS011;62805;44.644;10.942;2023-03-03T14:11:48;15.45;;;9.25;;
74369;SDS011;62805;44.644;10.942;2023-03-03T14:20:40;16.70;;;9.50;;
74369;SDS011;62805;44.644;10.942;2023-03-03T14:23:13;20.92;;;10.88;;
74369;SDS011;62805;44.644;10.942;2023-03-03T14:28:27;18.35;;;11.15;;
74369;SDS011;62805;44.644;10.942;2023-03-03T14:30:57;17.92;;;10.32;;
74369;SDS011;62805;44.644;10.942;2023-03-03T14:33:27;16.58;;;10.40;;
74369;SDS011;62805;44.644;10.942;2023-03-03T14:38:24;19.58;;;10.48;;
74369;SDS011;62805;44.644;10.942;2023-03-03T14:43:36;16.85;;;9.82;;
74369;SDS011;62805;44.644;10.942;2023-03-03T14:46:21;18.95;;;11.05;;
74369;SDS011;62805;44.644;10.942;2023-03-03T14:48:55;20.50;;;11.43;;
74369;SDS011;62805;44.644;10.942;2023-03-03T14:56:35;17.98;;;10.38;;
74369;SDS011;62805;44.644;10.942;2023-03-03T14:59:15;21.58;;;11.50;;
74369;SDS011;62805;44.644;10.942;2023-03-03T15:01:42;22.20;;;12.23;;
74369;SDS011;62805;44.644;10.942;2023-03-03T15:11:53;21.17;;;10.82;;
74369;SDS011;62805;44.644;10.942;2023-03-03T15:14:20;23.48;;;11.60;;
74369;SDS011;62805;44.644;10.942;2023-03-03T15:16:52;16.42;;;10.50;;
74369;SDS011;62805;44.644;10.942;2023-03-03T15:19:37;18.90;;;10.38;;
74369;SDS011;62805;44.644;10.942;2023-03-03T15:25:27;19.35;;;10.82;;
74369;SDS011;62805;44.644;10.942;2023-03-03T15:31:13;19.95;;;10.85;;
74369;SDS011;62805;44.644;10.942;2023-03-03T15:36:50;20.88;;;11.10;;
74369;SDS011;62805;44.644;10.942;2023-03-03T15:41:43;22.17;;;11.90;;
74369;SDS011;62805;44.644;10.942;2023-03-03T15:44:24;18.10;;;10.57;;
74369;SDS011;62805;44.644;10.942;2023-03-03T15:49:49;22.45;;;11.82;;
74369;SDS011;62805;44.644;10.942;2023-03-03T16:00:04;18.13;;;9.52;;
74369;SDS011;62805;44.644;10.942;2023-03-03T16:05:13;22.02;;;10.63;;
74369;SDS011;62805;44.644;10.942;2023-03-03T16:07:59;18.58;;;11.15;;
74369;SDS011;62805;44.644;10.942;2023-03-03T16:18:52;25.00;;;10.57;;
74369;SDS011;62805;44.644;10.942;2023-03-03T16:24:09;19.20;;;9.95;;
74369;SDS011;62805;44.644;10.942;2023-03-03T16:32:03;20.50;;;10.43;;
74369;SDS011;62805;44.644;10.942;2023-03-03T16:34:34;20.70;;;10.07;;
74369;SDS011;62805;44.644;10.942;2023-03-03T16:39:39;18.27;;;10.47;;
74369;SDS011;62805;44.644;10.942;2023-03-03T16:42:16;16.55;;;9.98;;
74369;SDS011;62805;44.644;10.942;2023-03-03T16:58:17;18.77;;;10.35;;
74369;SDS011;62805;44.644;10.942;2023-03-03T17:06:09;19.80;;;10.85;;
74369;SDS011;62805;44.644;10.942;2023-03-03T17:14:06;22.13;;;11.40;;
74369;SDS011;62805;44.644;10.942;2023-03-03T17:16:39;22.90;;;11.27;;
74369;SDS011;62805;44.644;10.942;2023-03-03T17:22:33;23.33;;;11.02;;
74369;SDS011;62805;44.644;10.942;2023-03-03T17:31:20;22.17;;;11.48;;
74369;SDS011;62805;44.644;10.942;2023-03-03T17:36:48;23.83;;;11.85;;
74369;SDS011;62805;44.644;10.942;2023-03-03T17:39:43;24.95;;;11.80;;
74369;SDS011;62805;44.644;10.942;2023-03-03T17:42:31;25.58;;;12.73;;
74369;SDS011;62805;44.644;10.942;2023-03-03T17:45:11;23.40;;;11.70;;
74369;SDS011;62805;44.644;10.942;2023-03-03T17:58:36;30.23;;;13.63;;
74369;SDS011;62805;44.644;10.942;2023-03-03T18:06:40;22.30;;;13.18;;
74369;SDS011;62805;44.644;10.942;2023-03-03T18:17:23;24.05;;;12.32;;
74369;SDS011;62805;44.644;10.942;2023-03-03T18:24:58;25.83;;;12.48;;
74369;SDS011;62805;44.644;10.942;2023-03-03T18:27:31;26.42;;;13.05;;
74369;SDS011;62805;44.644;10.942;2023-03-03T18:30:20;27.88;;;12.43;;
74369;SDS011;62805;44.644;10.942;2023-03-03T18:37:57;27.27;;;13.80;;
74369;SDS011;62805;44.644;10.942;2023-03-03T18:46:03;31.70;;;14.43;;
74369;SDS011;62805;44.644;10.942;2023-03-03T18:49:12;26.83;;;13.77;;
74369;SDS011;62805;44.644;10.942;2023-03-03T18:56:42;32.65;;;15.18;;
74369;SDS011;62805;44.644;10.942;2023-03-03T18:59:09;31.10;;;14.98;;
74369;SDS011;62805;44.644;10.942;2023-03-03T19:01:41;35.83;;;16.20;;
74369;SDS011;62805;44.644;10.942;2023-03-03T19:09:01;27.30;;;15.43;;
74369;SDS011;62805;44.644;10.942;2023-03-03T19:14:13;31.52;;;16.48;;
74369;SDS011;62805;44.644;10.942;2023-03-03T19:16:42;32.83;;;16.95;;
74369;SDS011;62805;44.644;10.942;2023-03-03T19:21:38;29.63;;;16.77;;
74369;SDS011;62805;44.644;10.942;2023-03-03T19:29:44;33.97;;;16.98;;
74369;SDS011;62805;44.644;10.942;2023-03-03T19:40:33;33.42;;;17.60;;
74369;SDS011;62805;44.644;10.942;2023-03-03T19:48:01;34.70;;;17.80;;
74369;SDS011;62805;44.644;10.942;2023-03-03T19:53:04;35.22;;;19.52;;
74369;SDS011;62805;44.644;10.942;2023-03-03T19:55:52;34.08;;;18.77;;
74369;SDS011;62805;44.644;10.942;2023-03-03T20:03:45;39.58;;;20.23;;
74369;SDS011;62805;44.644;10.942;2023-03-03T20:09:12;36.38;;;19.25;;
74369;SDS011;62805;44.644;10.942;2023-03-03T20:19:55;44.55;;;21.65;;
74369;SDS011;62805;44.644;10.942;2023-03-03T20:22:43;39.33;;;21.40;;
74369;SDS011;62805;44.644;10.942;2023-03-03T20:36:09;40.53;;;21.30;;
74369;SDS011;62805;44.644;10.942;2023-03-03T20:44:06;44.05;;;21.98;;
74369;SDS011;62805;44.644;10.942;2023-03-03T20:51:59;41.88;;;21.38;;
74369;SDS011;62805;44.644;10.942;2023-03-03T20:54:43;43.42;;;22.10;;
74369;SDS011;62805;44.644;10.942;2023-03-03T20:57:20;47.03;;;22.63;;
74369;SDS011;62805;44.644;10.942;2023-03-03T20:59:59;42.95;;;24.30;;
74369;SDS011;62805;44.644;10.942;2023-03-03T21:02:32;44.67;;;23.63;;
74369;SDS011;62805;44.644;10.942;2023-03-03T21:05:09;42.22;;;21.48;;
74369;SDS011;62805;44.644;10.942;2023-03-03T21:10:35;42.25;;;21.23;;
74369;SDS011;62805;44.644;10.942;2023-03-03T21:19:05;46.67;;;22.05;;
74369;SDS011;62805;44.644;10.942;2023-03-03T21:21:32;43.70;;;22.08;;
74369;SDS011;62805;44.644;10.942;2023-03-03T21:23:59;43.53;;;22.73;;
74369;SDS011;62805;44.644;10.942;2023-03-03T21:32:01;47.00;;;23.00;;
74369;SDS011;62805;44.644;10.942;2023-03-03T21:34:36;41.47;;;21.00;;
74369;SDS011;62805;44.644;10.942;2023-03-03T21:37:04;45.92;;;24.27;;
74369;SDS011;62805;44.644;10.942;2023-03-03T21:39:33;50.70;;;22.35;;
74369;SDS011;62805;44.644;10.942;2023-03-03T21:44:39;43.50;;;23.60;;
74369;SDS011;62805;44.644;10.942;2023-03-03T21:47:10;46.53;;;23.55;;
74369;SDS011;62805;44.644;10.942;2023-03-03T21:49:43;46.00;;;22.65;;
74369;SDS011;62805;44.644;10.942;2023-03-03T21:52:10;45.45;;;23.52;;
74369;SDS011;62805;44.644;10.942;2023-03-03T21:54:36;49.33;;;24.13;;
74369;SDS011;62805;44.644;10.942;2023-03-03T21:57:01;44.88;;;24.20;;
74369;SDS011;62805;44.644;10.942;2023-03-03T21:59:27;45.90;;;23.02;;
74369;SDS011;62805;44.644;10.942;2023-03-03T22:01:52;45.45;;;23.15;;
74369;SDS011;62805;44.644;10.942;2023-03-03T22:04:18;45.67;;;24.17;;
74369;SDS011;62805;44.644;10.942;2023-03-03T22:06:43;53.13;;;24.65;;